Point Hope, AK

8:03 PM AKST on February 26, 2017 (GMT -0900)
Point Hope | | Change Station

Elev 13 ft 68.35 °N, 166.80 °W | Updated 7 minutes ago

Overcast
Overcast
2 °F
Feels Like -16 °F
N
13
Wind Variable Wind from SW

Today
High -- | Low -- °F
--% Chance of Precip.
Yesterday
High -- | Low -- °F
Precip. -- in
Pressure 30.04 in
Visibility 5.0 miles
Clouds Few 1600 ft
Overcast 6000 ft
Windchill -16 °F
Dew Point -3 °F
Humidity 80%
Rainfall 0.00 in
Snow Depth Not available.
9:37 AM 7:03 PM
New Moon, 0% visible
METAR PAPO 270456Z AUTO 23011KT 5SM -SN FEW016 OVC060 M17/M19 A3003 RMK AO2 SNE17B41 SLP170 P0000 T11671194 FZRANO
Pressure 30.04 in
Visibility 5.0 miles
Clouds Few 1600 ft
Overcast 6000 ft
Windchill -16 °F
Dew Point -3 °F
Humidity 80%
Rainfall 0.00 in
Snow Depth Not available.
9:37 AM 7:03 PM
New Moon, 0% visible
METAR PAPO 270456Z AUTO 23011KT 5SM -SN FEW016 OVC060 M17/M19 A3003 RMK AO2 SNE17B41 SLP170 P0000 T11671194 FZRANO

Get Your Daily Forecast Email!

Thanks for signing up!

Be on the lookout for a verification email in your inbox.

You'll start receiving the daily forecast at 8 AM.

×

10-Day Weather Forecast

Almanac

Astronomy

Feb. 26, 2017 Rise Set
Actual Time
Civil Twilight
Nautical Twilight
Astronomical Twilight
Moon
Length of Visible Light
Length of Day
Tomorrow will be .
, % of the Moon is Illuminated

Today's Extremes

State Highs State Lows

Community

WunderPhotos

Upload Photos

1,962,540 photos uploaded!

WunderBlog® & News

Nearby

Air Quality

  Air Quality AQ Index Pollutant
Not available.

Snow Depth

Station Depth Elevation

Earthquake Activity

City Distance Mag. Time & Date
Minimum magnitude displayed is 2.5.

Coastal Water Temperatures

Place Temperature

Stations

Nearby Weather Stations

Station Location Temp. Windchill Dew Point Humidity Wind Precip. Elev Updated Type
                   

Watches & Warnings

There are currently no watches in effect.